sensor_id;sensor_type;location;lat;lon;timestamp;temperature;humidity
43697;DHT22;29301;47.620;19.560;2023-02-22T00:01:09;8.70;76.70
43697;DHT22;29301;47.620;19.560;2023-02-22T00:03:46;8.60;78.20
43697;DHT22;29301;47.620;19.560;2023-02-22T00:06:14;8.50;79.40
43697;DHT22;29301;47.620;19.560;2023-02-22T00:08:39;8.50;79.90
43697;DHT22;29301;47.620;19.560;2023-02-22T00:11:06;8.40;80.80
43697;DHT22;29301;47.620;19.560;2023-02-22T00:13:35;8.40;81.80
43697;DHT22;29301;47.620;19.560;2023-02-22T00:16:01;8.30;82.80
43697;DHT22;29301;47.620;19.560;2023-02-22T00:18:27;8.30;83.50
43697;DHT22;29301;47.620;19.560;2023-02-22T00:20:56;8.30;83.80
43697;DHT22;29301;47.620;19.560;2023-02-22T00:23:26;8.30;83.30
43697;DHT22;29301;47.620;19.560;2023-02-22T00:25:52;8.30;83.60
43697;DHT22;29301;47.620;19.560;2023-02-22T00:28:18;8.30;84.00
43697;DHT22;29301;47.620;19.560;2023-02-22T00:30:44;8.10;85.40
43697;DHT22;29301;47.620;19.560;2023-02-22T00:33:13;8.10;86.00
43697;DHT22;29301;47.620;19.560;2023-02-22T00:35:39;8.20;86.10
43697;DHT22;29301;47.620;19.560;2023-02-22T00:38:05;8.30;85.30
43697;DHT22;29301;47.620;19.560;2023-02-22T00:40:35;8.40;84.40
43697;DHT22;29301;47.620;19.560;2023-02-22T00:43:01;8.50;83.40
43697;DHT22;29301;47.620;19.560;2023-02-22T00:45:28;8.50;82.80
43697;DHT22;29301;47.620;19.560;2023-02-22T00:47:54;8.40;83.00
43697;DHT22;29301;47.620;19.560;2023-02-22T00:50:20;8.40;83.00
43697;DHT22;29301;47.620;19.560;2023-02-22T00:52:46;8.30;83.50
43697;DHT22;29301;47.620;19.560;2023-02-22T00:55:31;8.20;84.00
43697;DHT22;29301;47.620;19.560;2023-02-22T00:57:57;8.30;83.90
43697;DHT22;29301;47.620;19.560;2023-02-22T01:00:41;8.40;83.60
43697;DHT22;29301;47.620;19.560;2023-02-22T01:03:08;8.40;82.90
43697;DHT22;29301;47.620;19.560;2023-02-22T01:05:35;8.40;82.50
43697;DHT22;29301;47.620;19.560;2023-02-22T01:08:03;8.40;82.20
43697;DHT22;29301;47.620;19.560;2023-02-22T01:10:30;8.40;82.00
43697;DHT22;29301;47.620;19.560;2023-02-22T01:12:57;8.50;81.90
43697;DHT22;29301;47.620;19.560;2023-02-22T01:15:24;8.50;81.80
43697;DHT22;29301;47.620;19.560;2023-02-22T01:17:51;8.40;81.60
43697;DHT22;29301;47.620;19.560;2023-02-22T01:20:18;8.40;81.50
43697;DHT22;29301;47.620;19.560;2023-02-22T01:22:48;8.40;81.70
43697;DHT22;29301;47.620;19.560;2023-02-22T01:25:16;8.50;81.70
43697;DHT22;29301;47.620;19.560;2023-02-22T01:27:42;8.50;81.40
43697;DHT22;29301;47.620;19.560;2023-02-22T01:30:07;8.40;81.50
43697;DHT22;29301;47.620;19.560;2023-02-22T01:32:36;8.30;82.00
43697;DHT22;29301;47.620;19.560;2023-02-22T01:35:03;8.10;83.40
43697;DHT22;29301;47.620;19.560;2023-02-22T01:37:32;8.20;84.30
43697;DHT22;29301;47.620;19.560;2023-02-22T01:39:58;8.20;84.50
43697;DHT22;29301;47.620;19.560;2023-02-22T01:42:23;8.20;84.40
43697;DHT22;29301;47.620;19.560;2023-02-22T01:47:33;8.20;85.20
43697;DHT22;29301;47.620;19.560;2023-02-22T01:49:59;8.20;84.90
43697;DHT22;29301;47.620;19.560;2023-02-22T01:52:24;8.10;85.20
43697;DHT22;29301;47.620;19.560;2023-02-22T01:54:51;8.00;85.70
43697;DHT22;29301;47.620;19.560;2023-02-22T01:57:20;7.90;86.70
43697;DHT22;29301;47.620;19.560;2023-02-22T01:59:47;7.90;87.30
43697;DHT22;29301;47.620;19.560;2023-02-22T02:02:14;7.90;88.00
43697;DHT22;29301;47.620;19.560;2023-02-22T02:04:40;7.90;88.20
43697;DHT22;29301;47.620;19.560;2023-02-22T02:07:07;7.90;88.60
43697;DHT22;29301;47.620;19.560;2023-02-22T02:12:18;7.80;90.10
43697;DHT22;29301;47.620;19.560;2023-02-22T02:14:45;7.80;90.40
43697;DHT22;29301;47.620;19.560;2023-02-22T02:17:12;7.80;90.70
43697;DHT22;29301;47.620;19.560;2023-02-22T02:24:50;7.80;91.10
43697;DHT22;29301;47.620;19.560;2023-02-22T02:27:22;7.80;90.70
43697;DHT22;29301;47.620;19.560;2023-02-22T02:39:43;7.80;91.40
43697;DHT22;29301;47.620;19.560;2023-02-22T02:42:15;7.90;91.20
43697;DHT22;29301;47.620;19.560;2023-02-22T02:47:40;8.10;90.30
43697;DHT22;29301;47.620;19.560;2023-02-22T02:50:08;8.10;89.50
43697;DHT22;29301;47.620;19.560;2023-02-22T02:52:34;8.10;88.20
43697;DHT22;29301;47.620;19.560;2023-02-22T02:55:02;7.90;87.20
43697;DHT22;29301;47.620;19.560;2023-02-22T02:57:28;7.90;87.20
43697;DHT22;29301;47.620;19.560;2023-02-22T02:59:53;7.80;86.10
43697;DHT22;29301;47.620;19.560;2023-02-22T03:03:05;7.60;86.60
43697;DHT22;29301;47.620;19.560;2023-02-22T03:10:37;7.60;87.30
43697;DHT22;29301;47.620;19.560;2023-02-22T03:13:12;7.40;87.00
43697;DHT22;29301;47.620;19.560;2023-02-22T03:26:06;6.70;89.90
43697;DHT22;29301;47.620;19.560;2023-02-22T03:28:32;6.70;89.80
43697;DHT22;29301;47.620;19.560;2023-02-22T03:31:05;6.70;89.10
43697;DHT22;29301;47.620;19.560;2023-02-22T03:33:40;6.80;88.90
43697;DHT22;29301;47.620;19.560;2023-02-22T03:36:41;6.70;88.30
43697;DHT22;29301;47.620;19.560;2023-02-22T03:38:59;6.50;88.30
43697;DHT22;29301;47.620;19.560;2023-02-22T03:41:28;6.50;89.30
43697;DHT22;29301;47.620;19.560;2023-02-22T03:44:03;6.50;89.00
43697;DHT22;29301;47.620;19.560;2023-02-22T03:46:29;6.50;88.80
43697;DHT22;29301;47.620;19.560;2023-02-22T03:48:59;6.50;90.40
43697;DHT22;29301;47.620;19.560;2023-02-22T03:51:27;6.60;91.00
43697;DHT22;29301;47.620;19.560;2023-02-22T03:53:53;6.60;91.60
43697;DHT22;29301;47.620;19.560;2023-02-22T03:56:21;6.60;92.50
43697;DHT22;29301;47.620;19.560;2023-02-22T03:58:47;6.50;93.30
43697;DHT22;29301;47.620;19.560;2023-02-22T04:01:13;6.60;94.10
43697;DHT22;29301;47.620;19.560;2023-02-22T04:03:39;6.60;94.50
43697;DHT22;29301;47.620;19.560;2023-02-22T04:06:06;6.80;94.60
43697;DHT22;29301;47.620;19.560;2023-02-22T04:08:32;6.80;94.30
43697;DHT22;29301;47.620;19.560;2023-02-22T04:10:58;6.90;93.50
43697;DHT22;29301;47.620;19.560;2023-02-22T04:13:23;6.90;92.30
43697;DHT22;29301;47.620;19.560;2023-02-22T04:15:49;6.80;92.00
43697;DHT22;29301;47.620;19.560;2023-02-22T04:18:14;6.80;91.90
43697;DHT22;29301;47.620;19.560;2023-02-22T04:20:40;6.80;91.60
43697;DHT22;29301;47.620;19.560;2023-02-22T04:23:06;6.80;91.40
43697;DHT22;29301;47.620;19.560;2023-02-22T04:25:31;6.90;90.80
43697;DHT22;29301;47.620;19.560;2023-02-22T04:27:57;6.80;90.80
43697;DHT22;29301;47.620;19.560;2023-02-22T04:30:23;6.90;90.50
43697;DHT22;29301;47.620;19.560;2023-02-22T04:32:48;6.80;90.40
43697;DHT22;29301;47.620;19.560;2023-02-22T04:35:14;6.90;90.20
43697;DHT22;29301;47.620;19.560;2023-02-22T04:37:40;6.90;90.30
43697;DHT22;29301;47.620;19.560;2023-02-22T04:40:05;6.80;90.20
43697;DHT22;29301;47.620;19.560;2023-02-22T04:42:32;6.80;90.20
43697;DHT22;29301;47.620;19.560;2023-02-22T04:44:58;6.70;90.40
43697;DHT22;29301;47.620;19.560;2023-02-22T04:47:24;6.70;90.50
43697;DHT22;29301;47.620;19.560;2023-02-22T04:49:49;6.80;90.10
43697;DHT22;29301;47.620;19.560;2023-02-22T04:52:15;6.80;89.80
43697;DHT22;29301;47.620;19.560;2023-02-22T04:54:40;6.70;89.60
43697;DHT22;29301;47.620;19.560;2023-02-22T04:57:06;6.80;89.10
43697;DHT22;29301;47.620;19.560;2023-02-22T04:59:31;6.80;88.10
43697;DHT22;29301;47.620;19.560;2023-02-22T05:01:57;6.80;86.60
43697;DHT22;29301;47.620;19.560;2023-02-22T05:04:22;6.70;86.20
43697;DHT22;29301;47.620;19.560;2023-02-22T05:06:48;6.70;85.70
43697;DHT22;29301;47.620;19.560;2023-02-22T05:09:14;6.70;86.00
43697;DHT22;29301;47.620;19.560;2023-02-22T05:11:39;6.60;85.90
43697;DHT22;29301;47.620;19.560;2023-02-22T05:14:05;6.60;85.80
43697;DHT22;29301;47.620;19.560;2023-02-22T05:16:30;6.60;85.30
43697;DHT22;29301;47.620;19.560;2023-02-22T05:18:56;6.50;83.90
43697;DHT22;29301;47.620;19.560;2023-02-22T05:21:21;6.40;82.90
43697;DHT22;29301;47.620;19.560;2023-02-22T05:23:47;6.30;82.40
43697;DHT22;29301;47.620;19.560;2023-02-22T05:26:13;6.30;82.60
43697;DHT22;29301;47.620;19.560;2023-02-22T05:28:39;6.40;82.60
43697;DHT22;29301;47.620;19.560;2023-02-22T05:31:04;6.30;82.70
43697;DHT22;29301;47.620;19.560;2023-02-22T05:33:31;6.30;82.90
43697;DHT22;29301;47.620;19.560;2023-02-22T05:35:57;6.10;84.40
43697;DHT22;29301;47.620;19.560;2023-02-22T05:38:22;6.00;85.60
43697;DHT22;29301;47.620;19.560;2023-02-22T05:40:48;5.80;87.00
43697;DHT22;29301;47.620;19.560;2023-02-22T05:43:13;5.80;87.80
43697;DHT22;29301;47.620;19.560;2023-02-22T05:45:40;5.70;88.40
43697;DHT22;29301;47.620;19.560;2023-02-22T05:48:06;5.50;88.90
43697;DHT22;29301;47.620;19.560;2023-02-22T05:50:31;5.30;89.90
43697;DHT22;29301;47.620;19.560;2023-02-22T05:52:57;5.20;90.90
43697;DHT22;29301;47.620;19.560;2023-02-22T05:55:23;5.00;91.50
43697;DHT22;29301;47.620;19.560;2023-02-22T05:57:49;5.00;92.80
43697;DHT22;29301;47.620;19.560;2023-02-22T06:00:16;5.10;93.40
43697;DHT22;29301;47.620;19.560;2023-02-22T06:02:42;5.20;93.70
43697;DHT22;29301;47.620;19.560;2023-02-22T06:05:08;5.20;93.60
43697;DHT22;29301;47.620;19.560;2023-02-22T06:07:34;5.20;93.90
43697;DHT22;29301;47.620;19.560;2023-02-22T06:09:59;5.30;94.20
43697;DHT22;29301;47.620;19.560;2023-02-22T06:12:25;5.40;94.10
43697;DHT22;29301;47.620;19.560;2023-02-22T06:14:51;5.50;94.00
43697;DHT22;29301;47.620;19.560;2023-02-22T06:17:16;5.50;94.10
43697;DHT22;29301;47.620;19.560;2023-02-22T06:19:42;5.60;93.90
43697;DHT22;29301;47.620;19.560;2023-02-22T06:22:13;5.60;93.80
43697;DHT22;29301;47.620;19.560;2023-02-22T06:24:40;5.50;93.30
43697;DHT22;29301;47.620;19.560;2023-02-22T06:27:05;5.50;93.20
43697;DHT22;29301;47.620;19.560;2023-02-22T06:29:31;5.40;93.10
43697;DHT22;29301;47.620;19.560;2023-02-22T06:31:57;5.40;93.40
43697;DHT22;29301;47.620;19.560;2023-02-22T06:34:22;5.40;93.50
43697;DHT22;29301;47.620;19.560;2023-02-22T06:36:48;5.50;93.60
43697;DHT22;29301;47.620;19.560;2023-02-22T06:39:14;5.60;93.80
43697;DHT22;29301;47.620;19.560;2023-02-22T06:41:40;5.70;94.10
43697;DHT22;29301;47.620;19.560;2023-02-22T06:44:06;5.70;94.30
43697;DHT22;29301;47.620;19.560;2023-02-22T06:46:31;5.80;94.20
43697;DHT22;29301;47.620;19.560;2023-02-22T06:48:57;5.90;94.00
43697;DHT22;29301;47.620;19.560;2023-02-22T06:51:24;6.00;93.90
43697;DHT22;29301;47.620;19.560;2023-02-22T06:53:49;6.10;93.80
43697;DHT22;29301;47.620;19.560;2023-02-22T06:56:15;6.20;93.70
43697;DHT22;29301;47.620;19.560;2023-02-22T06:58:41;6.30;93.60
43697;DHT22;29301;47.620;19.560;2023-02-22T07:01:06;6.40;93.40
43697;DHT22;29301;47.620;19.560;2023-02-22T07:03:32;6.60;93.10
43697;DHT22;29301;47.620;19.560;2023-02-22T07:05:58;6.70;92.90
43697;DHT22;29301;47.620;19.560;2023-02-22T07:08:24;6.80;92.80
43697;DHT22;29301;47.620;19.560;2023-02-22T07:10:49;6.90;92.60
43697;DHT22;29301;47.620;19.560;2023-02-22T07:13:16;7.10;93.00
43697;DHT22;29301;47.620;19.560;2023-02-22T07:15:42;7.10;92.80
43697;DHT22;29301;47.620;19.560;2023-02-22T07:18:07;7.10;93.00
43697;DHT22;29301;47.620;19.560;2023-02-22T07:20:33;7.10;93.50
43697;DHT22;29301;47.620;19.560;2023-02-22T07:22:59;7.30;93.80
43697;DHT22;29301;47.620;19.560;2023-02-22T07:25:25;7.60;92.80
43697;DHT22;29301;47.620;19.560;2023-02-22T07:27:51;7.70;92.60
43697;DHT22;29301;47.620;19.560;2023-02-22T07:30:19;7.90;91.50
43697;DHT22;29301;47.620;19.560;2023-02-22T07:32:45;8.00;91.60
43697;DHT22;29301;47.620;19.560;2023-02-22T07:35:15;8.30;91.20
43697;DHT22;29301;47.620;19.560;2023-02-22T07:37:41;8.40;88.50
43697;DHT22;29301;47.620;19.560;2023-02-22T07:40:07;8.40;89.10
43697;DHT22;29301;47.620;19.560;2023-02-22T07:42:32;8.70;88.80
43697;DHT22;29301;47.620;19.560;2023-02-22T07:44:58;9.00;87.10
43697;DHT22;29301;47.620;19.560;2023-02-22T07:47:23;9.30;84.70
43697;DHT22;29301;47.620;19.560;2023-02-22T07:49:49;9.40;81.10
43697;DHT22;29301;47.620;19.560;2023-02-22T07:52:14;9.10;81.30
43697;DHT22;29301;47.620;19.560;2023-02-22T07:54:44;8.90;80.40
43697;DHT22;29301;47.620;19.560;2023-02-22T07:57:09;8.70;82.60
43697;DHT22;29301;47.620;19.560;2023-02-22T07:59:37;8.70;83.60
43697;DHT22;29301;47.620;19.560;2023-02-22T08:02:03;8.80;84.80
43697;DHT22;29301;47.620;19.560;2023-02-22T08:04:29;9.00;84.50
43697;DHT22;29301;47.620;19.560;2023-02-22T08:06:54;9.30;83.70
43697;DHT22;29301;47.620;19.560;2023-02-22T08:09:20;9.60;82.40
43697;DHT22;29301;47.620;19.560;2023-02-22T08:11:45;10.00;81.10
43697;DHT22;29301;47.620;19.560;2023-02-22T08:14:13;10.20;78.70
43697;DHT22;29301;47.620;19.560;2023-02-22T08:16:39;10.50;77.00
43697;DHT22;29301;47.620;19.560;2023-02-22T08:19:05;10.60;75.00
43697;DHT22;29301;47.620;19.560;2023-02-22T08:21:30;10.70;72.80
43697;DHT22;29301;47.620;19.560;2023-02-22T08:23:56;10.90;71.10
43697;DHT22;29301;47.620;19.560;2023-02-22T08:26:21;10.90;67.90
43697;DHT22;29301;47.620;19.560;2023-02-22T08:28:48;10.60;63.00
43697;DHT22;29301;47.620;19.560;2023-02-22T08:31:13;10.10;61.10
43697;DHT22;29301;47.620;19.560;2023-02-22T08:33:39;10.10;62.40
43697;DHT22;29301;47.620;19.560;2023-02-22T08:36:05;10.10;61.90
43697;DHT22;29301;47.620;19.560;2023-02-22T08:38:31;10.20;60.90
43697;DHT22;29301;47.620;19.560;2023-02-22T08:40:58;10.40;61.40
43697;DHT22;29301;47.620;19.560;2023-02-22T08:43:24;10.60;61.00
43697;DHT22;29301;47.620;19.560;2023-02-22T08:45:49;10.90;59.70
43697;DHT22;29301;47.620;19.560;2023-02-22T08:48:15;10.90;57.40
43697;DHT22;29301;47.620;19.560;2023-02-22T08:50:41;10.80;57.40
43697;DHT22;29301;47.620;19.560;2023-02-22T08:53:08;10.60;56.60
43697;DHT22;29301;47.620;19.560;2023-02-22T08:55:35;10.60;57.20
43697;DHT22;29301;47.620;19.560;2023-02-22T08:58:01;10.50;57.30
43697;DHT22;29301;47.620;19.560;2023-02-22T09:00:28;10.50;56.00
43697;DHT22;29301;47.620;19.560;2023-02-22T09:03:07;10.50;56.10
43697;DHT22;29301;47.620;19.560;2023-02-22T09:05:33;10.60;57.20
43697;DHT22;29301;47.620;19.560;2023-02-22T09:07:59;10.60;56.00
43697;DHT22;29301;47.620;19.560;2023-02-22T09:10:26;10.60;56.20
43697;DHT22;29301;47.620;19.560;2023-02-22T09:12:52;10.50;55.90
43697;DHT22;29301;47.620;19.560;2023-02-22T09:15:19;10.50;55.70
43697;DHT22;29301;47.620;19.560;2023-02-22T09:17:45;10.60;56.50
43697;DHT22;29301;47.620;19.560;2023-02-22T09:20:11;10.70;55.40
43697;DHT22;29301;47.620;19.560;2023-02-22T09:22:37;10.80;55.30
43697;DHT22;29301;47.620;19.560;2023-02-22T09:25:03;10.70;54.30
43697;DHT22;29301;47.620;19.560;2023-02-22T09:27:29;10.70;55.10
43697;DHT22;29301;47.620;19.560;2023-02-22T09:29:54;10.90;55.40
43697;DHT22;29301;47.620;19.560;2023-02-22T09:32:22;11.10;54.70
43697;DHT22;29301;47.620;19.560;2023-02-22T09:34:47;11.20;53.40
43697;DHT22;29301;47.620;19.560;2023-02-22T09:37:13;11.10;52.70
43697;DHT22;29301;47.620;19.560;2023-02-22T09:39:38;11.10;53.30
43697;DHT22;29301;47.620;19.560;2023-02-22T09:47:06;11.50;51.80
43697;DHT22;29301;47.620;19.560;2023-02-22T09:49:56;11.40;52.10
43697;DHT22;29301;47.620;19.560;2023-02-22T09:52:27;11.40;51.80
43697;DHT22;29301;47.620;19.560;2023-02-22T09:57:31;11.80;51.20
43697;DHT22;29301;47.620;19.560;2023-02-22T10:05:30;11.50;51.30
43697;DHT22;29301;47.620;19.560;2023-02-22T10:07:58;11.30;51.50
43697;DHT22;29301;47.620;19.560;2023-02-22T10:10:25;11.30;51.70
43697;DHT22;29301;47.620;19.560;2023-02-22T10:18:31;11.70;51.60
43697;DHT22;29301;47.620;19.560;2023-02-22T10:25:26;12.00;49.20
43697;DHT22;29301;47.620;19.560;2023-02-22T10:30:22;12.30;49.10
43697;DHT22;29301;47.620;19.560;2023-02-22T10:32:52;12.40;49.00
43697;DHT22;29301;47.620;19.560;2023-02-22T10:35:22;12.50;49.30
43697;DHT22;29301;47.620;19.560;2023-02-22T10:37:51;12.50;48.40
43697;DHT22;29301;47.620;19.560;2023-02-22T10:40:22;12.30;49.10
43697;DHT22;29301;47.620;19.560;2023-02-22T10:43:05;12.20;48.20
43697;DHT22;29301;47.620;19.560;2023-02-22T10:45:32;12.30;49.70
43697;DHT22;29301;47.620;19.560;2023-02-22T10:47:59;12.50;49.10
43697;DHT22;29301;47.620;19.560;2023-02-22T10:50:27;12.60;48.80
43697;DHT22;29301;47.620;19.560;2023-02-22T10:52:53;12.90;49.50
43697;DHT22;29301;47.620;19.560;2023-02-22T10:55:20;12.80;47.10
43697;DHT22;29301;47.620;19.560;2023-02-22T10:57:46;12.90;47.70
43697;DHT22;29301;47.620;19.560;2023-02-22T11:00:16;13.00;46.70
43697;DHT22;29301;47.620;19.560;2023-02-22T11:02:52;12.70;45.80
43697;DHT22;29301;47.620;19.560;2023-02-22T11:05:37;12.50;47.10
43697;DHT22;29301;47.620;19.560;2023-02-22T11:08:12;12.60;47.20
43697;DHT22;29301;47.620;19.560;2023-02-22T11:10:41;12.70;47.10
43697;DHT22;29301;47.620;19.560;2023-02-22T11:13:29;12.60;46.30
43697;DHT22;29301;47.620;19.560;2023-02-22T11:15:57;12.50;46.90
43697;DHT22;29301;47.620;19.560;2023-02-22T11:18:24;12.20;47.10
43697;DHT22;29301;47.620;19.560;2023-02-22T11:20:57;12.20;48.30
43697;DHT22;29301;47.620;19.560;2023-02-22T11:23:23;12.30;48.80
43697;DHT22;29301;47.620;19.560;2023-02-22T11:25:49;12.70;49.00
43697;DHT22;29301;47.620;19.560;2023-02-22T11:28:20;12.90;48.10
43697;DHT22;29301;47.620;19.560;2023-02-22T11:30:55;12.90;46.70
43697;DHT22;29301;47.620;19.560;2023-02-22T11:33:22;12.90;46.70
43697;DHT22;29301;47.620;19.560;2023-02-22T11:35:50;12.70;46.50
43697;DHT22;29301;47.620;19.560;2023-02-22T11:38:30;12.70;46.90
43697;DHT22;29301;47.620;19.560;2023-02-22T11:41:12;12.90;47.40
43697;DHT22;29301;47.620;19.560;2023-02-22T11:43:45;12.90;46.50
43697;DHT22;29301;47.620;19.560;2023-02-22T11:46:24;12.80;46.90
43697;DHT22;29301;47.620;19.560;2023-02-22T11:49:00;12.90;47.60
43697;DHT22;29301;47.620;19.560;2023-02-22T11:56:40;13.20;46.80
43697;DHT22;29301;47.620;19.560;2023-02-22T12:02:35;13.10;45.60
43697;DHT22;29301;47.620;19.560;2023-02-22T12:04:46;12.90;46.40
43697;DHT22;29301;47.620;19.560;2023-02-22T12:07:18;12.70;46.40
43697;DHT22;29301;47.620;19.560;2023-02-22T12:14:56;12.80;46.60
43697;DHT22;29301;47.620;19.560;2023-02-22T12:25:34;12.80;47.00
43697;DHT22;29301;47.620;19.560;2023-02-22T12:28:09;12.80;45.70
43697;DHT22;29301;47.620;19.560;2023-02-22T12:30:36;12.80;45.90
43697;DHT22;29301;47.620;19.560;2023-02-22T12:33:04;12.80;45.60
43697;DHT22;29301;47.620;19.560;2023-02-22T12:35:34;12.90;45.20
43697;DHT22;29301;47.620;19.560;2023-02-22T12:38:15;12.80;45.40
43697;DHT22;29301;47.620;19.560;2023-02-22T12:45:42;12.70;45.50
43697;DHT22;29301;47.620;19.560;2023-02-22T12:50:42;12.60;45.30
43697;DHT22;29301;47.620;19.560;2023-02-22T12:55:39;12.60;45.60
43697;DHT22;29301;47.620;19.560;2023-02-22T13:01:15;12.60;45.70
43697;DHT22;29301;47.620;19.560;2023-02-22T13:03:43;12.60;46.10
43697;DHT22;29301;47.620;19.560;2023-02-22T13:18:56;12.40;46.40
43697;DHT22;29301;47.620;19.560;2023-02-22T13:21:45;12.30;46.80
43697;DHT22;29301;47.620;19.560;2023-02-22T13:26:42;12.40;46.80
43697;DHT22;29301;47.620;19.560;2023-02-22T13:31:41;12.40;46.50
43697;DHT22;29301;47.620;19.560;2023-02-22T13:42:17;12.30;46.80
43697;DHT22;29301;47.620;19.560;2023-02-22T13:49:50;12.20;47.60
43697;DHT22;29301;47.620;19.560;2023-02-22T13:52:19;12.20;47.20
43697;DHT22;29301;47.620;19.560;2023-02-22T13:54:53;12.20;46.80
43697;DHT22;29301;47.620;19.560;2023-02-22T13:59:45;12.30;46.50
43697;DHT22;29301;47.620;19.560;2023-02-22T14:07:50;12.20;46.50
43697;DHT22;29301;47.620;19.560;2023-02-22T14:13:29;12.10;46.90
43697;DHT22;29301;47.620;19.560;2023-02-22T14:29:04;11.90;47.90
43697;DHT22;29301;47.620;19.560;2023-02-22T14:42:04;11.90;48.30
43697;DHT22;29301;47.620;19.560;2023-02-22T14:47:31;11.80;48.50
43697;DHT22;29301;47.620;19.560;2023-02-22T14:50:02;11.90;49.10
43697;DHT22;29301;47.620;19.560;2023-02-22T14:52:29;11.90;49.40
43697;DHT22;29301;47.620;19.560;2023-02-22T14:55:12;11.90;49.50
43697;DHT22;29301;47.620;19.560;2023-02-22T14:57:42;11.80;49.70
43697;DHT22;29301;47.620;19.560;2023-02-22T15:00:15;11.80;50.00
43697;DHT22;29301;47.620;19.560;2023-02-22T15:02:48;11.70;50.20
43697;DHT22;29301;47.620;19.560;2023-02-22T15:05:15;11.70;50.30
43697;DHT22;29301;47.620;19.560;2023-02-22T15:07:49;11.70;50.30
43697;DHT22;29301;47.620;19.560;2023-02-22T15:10:18;11.60;50.20
43697;DHT22;29301;47.620;19.560;2023-02-22T15:12:58;11.60;50.50
43697;DHT22;29301;47.620;19.560;2023-02-22T15:15:34;11.60;50.70
43697;DHT22;29301;47.620;19.560;2023-02-22T15:18:00;11.60;50.60
43697;DHT22;29301;47.620;19.560;2023-02-22T15:20:26;11.50;50.10
43697;DHT22;29301;47.620;19.560;2023-02-22T15:22:56;11.50;49.80
43697;DHT22;29301;47.620;19.560;2023-02-22T15:25:24;11.40;49.80
43697;DHT22;29301;47.620;19.560;2023-02-22T15:27:50;11.40;49.90
43697;DHT22;29301;47.620;19.560;2023-02-22T15:32:44;11.40;50.20
43697;DHT22;29301;47.620;19.560;2023-02-22T15:35:23;11.40;50.20
43697;DHT22;29301;47.620;19.560;2023-02-22T15:38:05;11.40;50.20
43697;DHT22;29301;47.620;19.560;2023-02-22T15:40:32;11.40;50.00
43697;DHT22;29301;47.620;19.560;2023-02-22T15:43:03;11.30;50.20
43697;DHT22;29301;47.620;19.560;2023-02-22T15:45:29;11.20;50.20
43697;DHT22;29301;47.620;19.560;2023-02-22T15:47:56;11.20;50.10
43697;DHT22;29301;47.620;19.560;2023-02-22T15:50:30;11.00;49.70
43697;DHT22;29301;47.620;19.560;2023-02-22T15:55:30;11.00;50.00
43697;DHT22;29301;47.620;19.560;2023-02-22T15:57:58;11.00;50.00
43697;DHT22;29301;47.620;19.560;2023-02-22T16:00:35;10.90;50.00
43697;DHT22;29301;47.620;19.560;2023-02-22T16:03:04;10.90;50.10
43697;DHT22;29301;47.620;19.560;2023-02-22T16:05:38;10.80;50.00
43697;DHT22;29301;47.620;19.560;2023-02-22T16:08:11;10.70;49.80
43697;DHT22;29301;47.620;19.560;2023-02-22T16:10:38;10.70;49.90
43697;DHT22;29301;47.620;19.560;2023-02-22T16:13:17;10.70;50.00
43697;DHT22;29301;47.620;19.560;2023-02-22T16:15:57;10.70;50.70
43697;DHT22;29301;47.620;19.560;2023-02-22T16:18:36;10.70;50.50
43697;DHT22;29301;47.620;19.560;2023-02-22T16:21:03;10.70;50.40
43697;DHT22;29301;47.620;19.560;2023-02-22T16:23:29;10.60;50.30
43697;DHT22;29301;47.620;19.560;2023-02-22T16:26:17;10.50;50.60
43697;DHT22;29301;47.620;19.560;2023-02-22T16:28:50;10.50;50.80
43697;DHT22;29301;47.620;19.560;2023-02-22T16:31:20;10.50;51.20
43697;DHT22;29301;47.620;19.560;2023-02-22T16:33:46;10.40;51.00
43697;DHT22;29301;47.620;19.560;2023-02-22T16:36:12;10.40;51.20
43697;DHT22;29301;47.620;19.560;2023-02-22T16:38:38;10.40;51.30
43697;DHT22;29301;47.620;19.560;2023-02-22T16:41:04;10.40;51.50
43697;DHT22;29301;47.620;19.560;2023-02-22T16:43:31;10.40;51.30
43697;DHT22;29301;47.620;19.560;2023-02-22T16:46:00;10.30;51.40
43697;DHT22;29301;47.620;19.560;2023-02-22T16:48:26;10.30;51.40
43697;DHT22;29301;47.620;19.560;2023-02-22T16:50:54;10.20;51.20
43697;DHT22;29301;47.620;19.560;2023-02-22T16:53:22;10.20;51.30
43697;DHT22;29301;47.620;19.560;2023-02-22T16:55:48;10.20;51.30
43697;DHT22;29301;47.620;19.560;2023-02-22T16:58:15;10.20;51.40
43697;DHT22;29301;47.620;19.560;2023-02-22T17:00:41;10.20;51.30
43697;DHT22;29301;47.620;19.560;2023-02-22T17:03:09;10.10;51.10
43697;DHT22;29301;47.620;19.560;2023-02-22T17:05:38;10.20;51.30
43697;DHT22;29301;47.620;19.560;2023-02-22T17:08:03;10.10;51.40
43697;DHT22;29301;47.620;19.560;2023-02-22T17:10:29;10.10;51.70
43697;DHT22;29301;47.620;19.560;2023-02-22T17:12:55;10.10;51.60
43697;DHT22;29301;47.620;19.560;2023-02-22T17:15:22;10.00;51.80
43697;DHT22;29301;47.620;19.560;2023-02-22T17:17:49;10.00;52.10
43697;DHT22;29301;47.620;19.560;2023-02-22T17:20:14;9.90;52.30
43697;DHT22;29301;47.620;19.560;2023-02-22T17:22:40;10.00;52.20
43697;DHT22;29301;47.620;19.560;2023-02-22T17:25:12;9.90;52.10
43697;DHT22;29301;47.620;19.560;2023-02-22T17:27:41;9.90;52.20
43697;DHT22;29301;47.620;19.560;2023-02-22T17:30:07;9.90;52.10
43697;DHT22;29301;47.620;19.560;2023-02-22T17:32:37;9.90;52.20
43697;DHT22;29301;47.620;19.560;2023-02-22T17:35:03;9.90;52.10
43697;DHT22;29301;47.620;19.560;2023-02-22T17:37:28;9.90;52.00
43697;DHT22;29301;47.620;19.560;2023-02-22T17:39:54;9.90;52.00
43697;DHT22;29301;47.620;19.560;2023-02-22T17:42:20;9.90;51.90
43697;DHT22;29301;47.620;19.560;2023-02-22T17:44:45;9.80;52.10
43697;DHT22;29301;47.620;19.560;2023-02-22T17:47:11;9.70;52.00
43697;DHT22;29301;47.620;19.560;2023-02-22T17:49:36;9.80;52.10
43697;DHT22;29301;47.620;19.560;2023-02-22T17:52:02;9.70;52.00
43697;DHT22;29301;47.620;19.560;2023-02-22T17:54:30;9.60;52.20
43697;DHT22;29301;47.620;19.560;2023-02-22T17:56:58;9.60;52.40
43697;DHT22;29301;47.620;19.560;2023-02-22T17:59:24;9.50;52.60
43697;DHT22;29301;47.620;19.560;2023-02-22T18:01:50;9.50;52.60
43697;DHT22;29301;47.620;19.560;2023-02-22T18:04:16;9.50;52.60
43697;DHT22;29301;47.620;19.560;2023-02-22T18:06:42;9.60;52.70
43697;DHT22;29301;47.620;19.560;2023-02-22T18:09:08;9.50;52.30
43697;DHT22;29301;47.620;19.560;2023-02-22T18:11:36;9.50;52.50
43697;DHT22;29301;47.620;19.560;2023-02-22T18:14:02;9.60;52.60
43697;DHT22;29301;47.620;19.560;2023-02-22T18:16:28;9.50;52.30
43697;DHT22;29301;47.620;19.560;2023-02-22T18:18:54;9.40;52.70
43697;DHT22;29301;47.620;19.560;2023-02-22T18:21:20;9.30;52.80
43697;DHT22;29301;47.620;19.560;2023-02-22T18:23:45;9.30;53.10